createdAt,value
2023-02-15T00:01:34.470Z,9.85
2023-02-15T00:04:01.597Z,12.23
2023-02-15T00:06:28.833Z,11.52
2023-02-15T00:08:56.903Z,11.13
2023-02-15T00:11:43.175Z,9.57
2023-02-15T00:14:11.693Z,11.20
2023-02-15T00:16:39.562Z,12.80
2023-02-15T00:19:07.088Z,9.45
2023-02-15T00:21:34.981Z,8.73
2023-02-15T00:24:02.798Z,9.05
2023-02-15T00:26:30.363Z,10.00
2023-02-15T00:28:59.877Z,8.45
2023-02-15T00:31:28.195Z,10.77
2023-02-15T00:33:55.517Z,8.30
2023-02-15T00:36:22.742Z,7.88
2023-02-15T00:38:49.922Z,8.43
2023-02-15T00:41:17.058Z,8.68
2023-02-15T00:43:44.199Z,7.65
2023-02-15T00:46:11.514Z,7.57
2023-02-15T00:48:38.726Z,8.35
2023-02-15T00:51:08.627Z,8.57
2023-02-15T00:53:35.919Z,7.85
2023-02-15T00:56:03.547Z,9.82
2023-02-15T00:58:30.922Z,7.88
2023-02-15T01:01:04.110Z,7.60
2023-02-15T01:05:58.681Z,6.25
2023-02-15T01:08:26.031Z,7.50
2023-02-15T01:10:53.612Z,7.30
2023-02-15T01:13:21.006Z,6.55
2023-02-15T01:15:54.207Z,6.65
2023-02-15T01:20:48.974Z,6.82
2023-02-15T01:23:16.552Z,9.15
2023-02-15T01:25:43.720Z,7.47
2023-02-15T01:28:10.988Z,7.53
2023-02-15T01:30:38.254Z,5.95
2023-02-15T01:33:05.499Z,7.63
2023-02-15T01:35:32.903Z,10.95
2023-02-15T01:38:00.139Z,5.32
2023-02-15T01:40:27.871Z,5.45
2023-02-15T01:42:55.790Z,6.60
2023-02-15T01:45:27.267Z,5.47
2023-02-15T01:48:04.158Z,8.50
2023-02-15T01:50:31.331Z,8.48
2023-02-15T01:53:05.537Z,5.60
2023-02-15T01:55:35.755Z,7.32
2023-02-15T01:58:03.289Z,5.78
2023-02-15T02:00:30.503Z,7.10
2023-02-15T02:02:58.635Z,7.15
2023-02-15T02:05:26.435Z,6.80
2023-02-15T02:07:55.534Z,6.22
2023-02-15T02:10:24.368Z,6.65
2023-02-15T02:12:53.668Z,5.70
2023-02-15T02:15:22.936Z,4.95
2023-02-15T02:18:03.620Z,5.53
2023-02-15T02:20:54.783Z,7.00
2023-02-15T02:23:27.389Z,7.35
2023-02-15T02:26:07.565Z,4.45
2023-02-15T02:28:43.545Z,6.50
2023-02-15T02:31:29.645Z,5.70
2023-02-15T02:34:03.084Z,5.40
2023-02-15T02:36:46.483Z,6.18
2023-02-15T02:41:52.617Z,8.95
2023-02-15T02:44:26.358Z,7.15
2023-02-15T02:46:55.106Z,5.57
2023-02-15T02:49:32.854Z,6.93
2023-02-15T02:52:01.184Z,6.47
2023-02-15T02:54:29.297Z,4.18
2023-02-15T02:56:57.846Z,3.78
2023-02-15T02:59:47.195Z,5.13
2023-02-15T03:02:26.647Z,6.40
2023-02-15T03:04:59.587Z,4.63
2023-02-15T03:07:29.075Z,4.53
2023-02-15T03:09:58.215Z,5.38
2023-02-15T03:12:36.053Z,4.25
2023-02-15T03:15:04.896Z,5.00
2023-02-15T03:17:33.678Z,8.52
2023-02-15T03:20:03.502Z,9.00
2023-02-15T03:22:33.386Z,6.43
2023-02-15T03:25:06.902Z,8.85
2023-02-15T03:27:37.771Z,7.50
2023-02-15T03:30:07.009Z,6.82
2023-02-15T03:32:34.927Z,8.77
2023-02-15T03:35:02.348Z,8.45
2023-02-15T03:37:32.472Z,6.22
2023-02-15T03:40:25.632Z,7.30
2023-02-15T03:42:57.500Z,7.18
2023-02-15T03:45:27.409Z,6.22
2023-02-15T03:47:56.449Z,5.05
2023-02-15T03:50:46.977Z,6.20
2023-02-15T03:53:16.116Z,7.05
2023-02-15T03:55:43.247Z,4.07
2023-02-15T03:58:29.102Z,6.10
2023-02-15T04:01:19.710Z,3.58
2023-02-15T04:03:54.122Z,3.30
2023-02-15T04:06:21.255Z,5.03
2023-02-15T04:09:07.398Z,4.47
2023-02-15T04:11:34.591Z,5.47
2023-02-15T04:14:21.713Z,5.00
2023-02-15T04:16:49.151Z,4.68
2023-02-15T04:19:36.141Z,3.70
2023-02-15T04:22:21.898Z,7.22
2023-02-15T04:25:08.191Z,6.13
2023-02-15T04:27:35.406Z,6.22
2023-02-15T04:30:02.675Z,4.32
2023-02-15T04:32:29.852Z,3.58
2023-02-15T04:34:57.597Z,4.60
2023-02-15T04:37:24.778Z,4.53
2023-02-15T04:39:51.931Z,2.75
2023-02-15T04:42:19.099Z,4.07
2023-02-15T04:44:46.554Z,3.70
2023-02-15T04:47:13.689Z,3.17
2023-02-15T04:49:40.853Z,3.47
2023-02-15T04:52:08.273Z,3.90
2023-02-15T04:54:35.480Z,3.63
2023-02-15T04:57:02.882Z,3.58
2023-02-15T04:59:30.019Z,4.95
2023-02-15T05:01:57.177Z,4.78
2023-02-15T05:04:24.638Z,2.47
2023-02-15T05:06:51.966Z,3.63
2023-02-15T05:09:19.152Z,2.65
2023-02-15T05:11:46.365Z,5.13
2023-02-15T05:14:13.933Z,2.97
2023-02-15T05:16:41.178Z,3.13
2023-02-15T05:19:08.471Z,2.42
2023-02-15T05:21:35.780Z,3.65
2023-02-15T05:24:23.004Z,5.22
2023-02-15T05:27:08.896Z,3.60
2023-02-15T05:29:36.334Z,3.67
2023-02-15T05:32:05.363Z,4.35
2023-02-15T05:34:32.807Z,3.45
2023-02-15T05:36:59.929Z,5.03
2023-02-15T05:39:27.297Z,4.47
2023-02-15T05:41:54.784Z,2.50
2023-02-15T05:44:21.968Z,3.00
2023-02-15T05:46:49.200Z,3.17
2023-02-15T05:49:16.461Z,2.67
2023-02-15T05:51:43.691Z,4.28
2023-02-15T05:54:11.046Z,3.97
2023-02-15T05:56:38.193Z,4.18
2023-02-15T05:59:05.562Z,3.38
2023-02-15T06:01:32.692Z,3.83
2023-02-15T06:04:00.367Z,3.78
2023-02-15T06:06:27.557Z,3.92
2023-02-15T06:08:54.769Z,3.42
2023-02-15T06:11:21.893Z,3.40
2023-02-15T06:13:49.146Z,3.47
2023-02-15T06:16:17.169Z,4.55
2023-02-15T06:18:45.368Z,7.38
2023-02-15T06:21:12.752Z,5.30
2023-02-15T06:23:40.047Z,5.60
2023-02-15T06:26:07.249Z,5.15
2023-02-15T06:28:35.015Z,9.25
2023-02-15T06:31:02.361Z,6.00
2023-02-15T06:33:31.448Z,7.47
2023-02-15T06:35:58.603Z,7.63
2023-02-15T06:38:25.824Z,11.27
2023-02-15T06:40:53.045Z,9.27
2023-02-15T06:43:20.221Z,16.98
2023-02-15T06:45:47.416Z,12.75
2023-02-15T06:48:14.721Z,8.25
2023-02-15T06:50:41.854Z,9.48
2023-02-15T06:53:10.422Z,8.07
2023-02-15T06:55:38.113Z,13.15
2023-02-15T06:58:05.773Z,16.02
2023-02-15T07:00:33.273Z,10.13
2023-02-15T07:03:04.160Z,21.35
2023-02-15T07:05:34.789Z,20.73
2023-02-15T07:08:02.493Z,22.25
2023-02-15T07:10:30.224Z,18.13
2023-02-15T07:12:57.420Z,13.95
2023-02-15T07:15:24.888Z,12.52
2023-02-15T07:17:52.144Z,11.27
2023-02-15T07:20:20.960Z,20.65
2023-02-15T07:22:48.217Z,15.20
2023-02-15T07:25:15.543Z,17.55
2023-02-15T07:27:42.901Z,9.77
2023-02-15T07:30:12.494Z,28.42
2023-02-15T07:33:00.046Z,9.85
2023-02-15T07:35:27.494Z,12.98
2023-02-15T07:37:54.594Z,13.23
2023-02-15T07:40:24.642Z,12.05
2023-02-15T07:42:55.983Z,15.57
2023-02-15T07:45:23.288Z,11.30
2023-02-15T07:47:50.505Z,12.02
2023-02-15T07:50:17.791Z,13.75
2023-02-15T07:52:45.304Z,12.52
2023-02-15T07:55:14.437Z,11.50
2023-02-15T07:57:46.704Z,11.13
2023-02-15T08:00:15.348Z,10.93
2023-02-15T08:02:42.790Z,10.90
2023-02-15T08:05:11.240Z,11.77
2023-02-15T08:07:38.653Z,11.60
2023-02-15T08:10:06.238Z,13.25
2023-02-15T08:12:34.117Z,9.30
2023-02-15T08:15:04.954Z,10.65
2023-02-15T08:17:32.698Z,11.23
2023-02-15T08:19:59.913Z,12.40
2023-02-15T08:22:27.569Z,9.90
2023-02-15T08:24:57.561Z,18.38
2023-02-15T08:27:27.723Z,14.48
2023-02-15T08:29:55.079Z,21.30
2023-02-15T08:32:22.349Z,1999.90
2023-02-15T08:34:50.151Z,1999.90
2023-02-15T08:37:18.734Z,1999.90
2023-02-15T08:39:46.957Z,1999.90
2023-02-15T08:42:15.103Z,143.48
2023-02-15T08:44:42.334Z,11.05
2023-02-15T08:47:09.578Z,9.05
2023-02-15T08:49:37.101Z,6.70
2023-02-15T08:52:04.687Z,7.93
2023-02-15T08:54:32.224Z,6.75
2023-02-15T08:57:00.130Z,3.47
2023-02-15T08:59:28.018Z,3.50
2023-02-15T09:01:56.341Z,8.20
2023-02-15T09:04:23.757Z,4.45
2023-02-15T09:06:51.635Z,5.75
2023-02-15T09:09:20.008Z,8.00
2023-02-15T09:11:48.556Z,8.35
2023-02-15T09:14:17.872Z,7.55
2023-02-15T09:16:50.824Z,5.60
2023-02-15T09:19:19.003Z,8.43
2023-02-15T09:21:46.228Z,3.28
2023-02-15T09:24:15.287Z,4.32
2023-02-15T09:26:44.475Z,4.43
2023-02-15T09:29:12.499Z,2.35
2023-02-15T09:31:47.237Z,2.85
2023-02-15T09:34:17.117Z,4.05
2023-02-15T09:36:44.610Z,4.72
2023-02-15T09:39:13.476Z,18.50
2023-02-15T09:41:52.909Z,6.97
2023-02-15T09:44:23.223Z,30.02
2023-02-15T09:47:01.719Z,13.65
2023-02-15T09:49:55.269Z,26.27
2023-02-15T09:52:35.802Z,35.50
2023-02-15T09:55:19.694Z,32.10
2023-02-15T10:00:20.161Z,21.02
2023-02-15T10:02:50.454Z,26.88
2023-02-15T10:05:30.012Z,14.30
2023-02-15T10:08:03.384Z,16.05
2023-02-15T10:10:30.798Z,10.77
2023-02-15T10:12:57.973Z,12.13
2023-02-15T10:15:27.189Z,15.65
2023-02-15T10:18:13.418Z,10.57
2023-02-15T10:20:53.367Z,24.10
2023-02-15T10:23:39.635Z,17.92
2023-02-15T10:26:27.114Z,1.60
2023-02-15T10:29:02.121Z,1.30
2023-02-15T10:31:47.850Z,2.33
2023-02-15T10:34:22.836Z,1.70
2023-02-15T10:36:57.766Z,1.27
2023-02-15T10:39:39.703Z,1.38
2023-02-15T10:42:22.101Z,2.30
2023-02-15T10:44:58.738Z,1.40
2023-02-15T10:47:44.908Z,1.45
2023-02-15T10:50:12.101Z,1.73
2023-02-15T10:52:42.676Z,3.38
2023-02-15T10:55:10.061Z,1.30
2023-02-15T10:57:37.296Z,1.48
2023-02-15T11:00:10.678Z,1.45
2023-02-15T11:02:37.849Z,1.73
2023-02-15T11:05:18.376Z,5.78
2023-02-15T11:07:47.076Z,2.58
2023-02-15T11:10:24.969Z,3.38
2023-02-15T11:12:52.752Z,1.40
2023-02-15T11:15:35.679Z,4.25
2023-02-15T11:18:22.028Z,1.58
2023-02-15T11:21:01.915Z,1.80
2023-02-15T11:23:30.362Z,1.65
2023-02-15T11:26:02.207Z,1.50
2023-02-15T11:28:33.140Z,1.50
2023-02-15T11:31:02.480Z,1.80
2023-02-15T11:33:32.845Z,1.70
2023-02-15T11:36:00.578Z,1.48
2023-02-15T11:38:30.890Z,6.05
2023-02-15T11:41:01.682Z,2.65
2023-02-15T11:43:36.424Z,2.28
2023-02-15T11:46:03.775Z,2.20
2023-02-15T11:48:32.021Z,2.60
2023-02-15T11:50:59.568Z,2.30
2023-02-15T11:53:29.787Z,2.25
2023-02-15T11:55:57.914Z,2.53
2023-02-15T11:58:46.788Z,8.13
2023-02-15T12:01:34.289Z,2.42
2023-02-15T12:04:06.045Z,2.67
2023-02-15T12:06:35.831Z,2.63
2023-02-15T12:09:02.961Z,2.85
2023-02-15T12:11:33.609Z,4.00
2023-02-15T12:14:02.163Z,4.45
2023-02-15T12:16:30.745Z,3.83
2023-02-15T12:18:59.334Z,3.15
2023-02-15T12:21:28.485Z,6.18
2023-02-15T12:23:57.332Z,3.10
2023-02-15T12:26:29.046Z,4.07
2023-02-15T12:28:59.733Z,3.08
2023-02-15T12:31:29.195Z,4.18
2023-02-15T12:33:58.360Z,3.47
2023-02-15T12:36:33.523Z,6.22
2023-02-15T12:39:20.773Z,5.28
2023-02-15T12:41:58.637Z,3.20
2023-02-15T12:44:27.864Z,3.33
2023-02-15T12:47:05.981Z,3.92
2023-02-15T12:49:35.918Z,4.35
2023-02-15T12:52:04.643Z,3.80
2023-02-15T12:54:42.282Z,4.38
2023-02-15T12:57:32.857Z,3.95
2023-02-15T13:00:01.740Z,5.55
2023-02-15T13:02:31.247Z,20.35
2023-02-15T13:04:59.499Z,4.22
2023-02-15T13:07:29.490Z,3.45
2023-02-15T13:09:56.772Z,4.32
2023-02-15T13:12:27.459Z,5.93
2023-02-15T13:14:55.939Z,4.25
2023-02-15T13:17:34.798Z,5.07
2023-02-15T13:20:24.957Z,4.93
2023-02-15T13:22:54.377Z,4.40
2023-02-15T13:25:23.878Z,5.78
2023-02-15T13:27:53.908Z,5.57
2023-02-15T13:30:26.931Z,4.93
2023-02-15T13:32:56.778Z,4.45
2023-02-15T13:35:24.566Z,13.05
2023-02-15T13:38:04.983Z,6.25
2023-02-15T13:40:39.308Z,4.65
2023-02-15T13:43:15.714Z,3.92
2023-02-15T13:45:49.006Z,5.38
2023-02-15T13:48:46.058Z,3.88
2023-02-15T13:51:23.706Z,6.70
2023-02-15T13:54:17.338Z,4.85
2023-02-15T13:56:47.270Z,4.25
2023-02-15T13:59:32.912Z,6.03
2023-02-15T14:02:08.739Z,11.60
2023-02-15T14:04:50.672Z,5.85
2023-02-15T14:07:25.190Z,5.30
2023-02-15T14:09:56.113Z,12.10
2023-02-15T14:12:35.715Z,6.15
2023-02-15T14:15:21.602Z,7.93
2023-02-15T14:17:55.001Z,5.07
2023-02-15T14:20:41.775Z,4.32
2023-02-15T14:23:30.585Z,4.35
2023-02-15T14:26:01.334Z,7.00
2023-02-15T14:28:37.854Z,6.63
2023-02-15T14:31:07.633Z,5.40
2023-02-15T14:33:38.649Z,6.53
2023-02-15T14:36:07.410Z,7.43
2023-02-15T14:38:37.687Z,6.32
2023-02-15T14:41:23.426Z,7.35
2023-02-15T14:43:56.602Z,6.72
2023-02-15T14:46:26.567Z,7.63
2023-02-15T14:48:55.364Z,5.75
2023-02-15T14:51:41.139Z,12.20
2023-02-15T14:54:09.208Z,8.13
2023-02-15T14:56:36.738Z,13.32
2023-02-15T14:59:12.962Z,4.82
2023-02-15T15:01:41.116Z,7.93
2023-02-15T15:04:09.887Z,12.00
2023-02-15T15:06:42.144Z,10.23
2023-02-15T15:09:13.930Z,5.15
2023-02-15T15:11:51.353Z,5.88
2023-02-15T15:14:34.047Z,7.45
2023-02-15T15:17:05.385Z,5.82
2023-02-15T15:19:55.870Z,7.95
2023-02-15T15:22:24.762Z,8.75
2023-02-15T15:24:53.714Z,11.20
2023-02-15T15:27:39.373Z,38.55
2023-02-15T15:30:15.600Z,7.22
2023-02-15T15:32:47.617Z,8.30
2023-02-15T15:35:25.589Z,11.00
2023-02-15T15:38:15.246Z,10.02
2023-02-15T15:40:57.807Z,5.65
2023-02-15T15:43:51.542Z,7.40
2023-02-15T15:46:35.685Z,10.98
2023-02-15T15:49:05.006Z,11.98
2023-02-15T15:51:34.387Z,14.48
2023-02-15T15:54:03.519Z,6.95
2023-02-15T15:56:32.900Z,6.10
2023-02-15T15:59:01.584Z,8.52
2023-02-15T16:01:30.486Z,7.18
2023-02-15T16:03:58.984Z,20.13
2023-02-15T16:06:45.854Z,8.05
2023-02-15T16:09:21.452Z,7.53
2023-02-15T16:11:50.244Z,7.40
2023-02-15T16:14:19.051Z,9.30
2023-02-15T16:16:54.084Z,33.25
2023-02-15T16:19:23.971Z,9.98
2023-02-15T16:21:51.930Z,8.00
2023-02-15T16:24:19.230Z,8.68
2023-02-15T16:26:56.257Z,7.97
2023-02-15T16:29:31.047Z,10.75
2023-02-15T16:32:02.134Z,7.85
2023-02-15T16:34:33.297Z,7.55
2023-02-15T16:37:20.024Z,8.00
2023-02-15T16:39:49.170Z,9.57
2023-02-15T16:42:17.322Z,9.65
2023-02-15T16:44:45.634Z,8.40
2023-02-15T16:47:17.790Z,8.60
2023-02-15T16:49:49.885Z,8.75
2023-02-15T16:52:21.577Z,8.82
2023-02-15T16:54:51.934Z,10.38
2023-02-15T16:57:23.322Z,9.23
2023-02-15T16:59:51.582Z,11.68
2023-02-15T17:02:49.441Z,9.25
2023-02-15T17:05:12.017Z,11.02
2023-02-15T17:07:42.807Z,9.27
2023-02-15T17:10:29.638Z,13.07
2023-02-15T17:13:01.865Z,10.25
2023-02-15T17:15:36.301Z,9.40
2023-02-15T17:18:17.273Z,9.15
2023-02-15T17:20:44.676Z,10.95
2023-02-15T17:23:23.262Z,10.32
2023-02-15T17:25:50.699Z,16.38
2023-02-15T17:28:19.289Z,11.82
2023-02-15T17:30:47.361Z,10.35
2023-02-15T17:33:30.123Z,14.15
2023-02-15T17:36:07.920Z,17.58
2023-02-15T17:38:35.101Z,12.10
2023-02-15T17:41:02.544Z,12.32
2023-02-15T17:43:29.803Z,13.38
2023-02-15T17:45:58.512Z,12.88
2023-02-15T17:48:32.575Z,13.30
2023-02-15T17:51:02.237Z,15.35
2023-02-15T17:53:29.746Z,11.93
2023-02-15T17:55:56.926Z,14.95
2023-02-15T17:58:24.140Z,16.02
2023-02-15T18:01:12.463Z,15.65
2023-02-15T18:04:09.122Z,15.48
2023-02-15T18:06:56.398Z,18.70
2023-02-15T18:09:42.719Z,45.45
2023-02-15T18:12:23.780Z,34.33
2023-02-15T18:14:51.399Z,50.85
2023-02-15T18:17:19.099Z,29.90
2023-02-15T18:19:47.540Z,34.35
2023-02-15T18:22:17.043Z,31.25
2023-02-15T18:24:45.278Z,27.52
2023-02-15T18:27:13.588Z,26.63
2023-02-15T18:29:41.247Z,31.02
2023-02-15T18:32:09.724Z,27.70
2023-02-15T18:34:40.788Z,23.17
2023-02-15T18:37:11.852Z,23.40
2023-02-15T18:39:40.452Z,23.92
2023-02-15T18:42:08.482Z,24.50
2023-02-15T18:44:36.256Z,23.73
2023-02-15T18:47:03.467Z,25.05
2023-02-15T18:49:30.649Z,20.20
2023-02-15T18:51:57.832Z,22.13
2023-02-15T18:54:25.887Z,22.23
2023-02-15T18:56:54.987Z,20.90
2023-02-15T18:59:22.786Z,28.58
2023-02-15T19:01:50.214Z,27.55
2023-02-15T19:04:17.483Z,29.00
2023-02-15T19:06:46.571Z,27.42
2023-02-15T19:09:15.395Z,26.13
2023-02-15T19:11:42.645Z,24.30
2023-02-15T19:14:23.248Z,29.13
2023-02-15T19:16:50.448Z,25.15
2023-02-15T19:19:18.306Z,24.95
2023-02-15T19:21:45.615Z,29.35
2023-02-15T19:24:36.120Z,31.48
2023-02-15T19:27:03.799Z,29.73
2023-02-15T19:29:31.413Z,26.95
2023-02-15T19:31:58.676Z,26.83
2023-02-15T19:34:25.929Z,29.65
2023-02-15T19:36:54.048Z,32.85
2023-02-15T19:39:26.238Z,28.73
2023-02-15T19:41:53.749Z,30.55
2023-02-15T19:44:21.483Z,36.20
2023-02-15T19:46:48.643Z,47.60
2023-02-15T19:49:15.855Z,33.40
2023-02-15T19:51:43.141Z,40.63
2023-02-15T19:54:19.508Z,50.13
2023-02-15T19:56:46.977Z,44.75
2023-02-15T19:59:24.983Z,58.08
2023-02-15T20:01:52.255Z,63.28
2023-02-15T20:04:19.807Z,58.50
2023-02-15T20:06:49.491Z,53.20
2023-02-15T20:09:21.176Z,55.53
2023-02-15T20:11:48.520Z,34.40
2023-02-15T20:14:15.903Z,50.03
2023-02-15T20:16:43.105Z,29.80
2023-02-15T20:19:10.430Z,33.03
2023-02-15T20:21:37.914Z,28.77
2023-02-15T20:24:05.488Z,27.38
2023-02-15T20:26:33.112Z,25.38
2023-02-15T20:29:00.972Z,25.13
2023-02-15T20:31:28.205Z,20.08
2023-02-15T20:33:55.544Z,23.10
2023-02-15T20:36:23.479Z,22.02
2023-02-15T20:38:50.673Z,21.10
2023-02-15T20:41:39.799Z,17.88
2023-02-15T20:44:13.006Z,20.77
2023-02-15T20:46:40.256Z,21.58
2023-02-15T20:49:07.395Z,21.33
2023-02-15T20:51:34.683Z,20.95
2023-02-15T20:54:02.364Z,20.77
2023-02-15T20:56:29.517Z,20.63
2023-02-15T20:58:56.653Z,21.65
2023-02-15T21:01:23.851Z,20.85
2023-02-15T21:03:51.310Z,21.20
2023-02-15T21:06:18.585Z,25.67
2023-02-15T21:08:45.760Z,24.98
2023-02-15T21:11:20.996Z,23.80
2023-02-15T21:13:49.016Z,25.15
2023-02-15T21:16:17.029Z,23.42
2023-02-15T21:18:44.249Z,21.35
2023-02-15T21:21:14.984Z,22.85
2023-02-15T21:23:44.476Z,25.27
2023-02-15T21:26:19.159Z,25.65
2023-02-15T21:28:47.404Z,24.25
2023-02-15T21:31:19.132Z,25.80
2023-02-15T21:33:46.459Z,25.73
2023-02-15T21:36:15.687Z,27.05
2023-02-15T21:38:43.228Z,28.85
2023-02-15T21:41:39.058Z,26.33
2023-02-15T21:44:35.322Z,30.13
2023-02-15T21:47:21.308Z,26.95
2023-02-15T21:49:48.439Z,30.67
2023-02-15T21:52:17.477Z,25.02
2023-02-15T21:54:45.318Z,25.83
2023-02-15T21:57:16.720Z,26.00
2023-02-15T21:59:44.273Z,23.92
2023-02-15T22:02:26.682Z,26.73
2023-02-15T22:04:53.923Z,23.73
2023-02-15T22:07:21.148Z,26.15
2023-02-15T22:09:48.343Z,26.88
2023-02-15T22:12:17.452Z,27.63
2023-02-15T22:14:46.507Z,23.98
2023-02-15T22:17:18.037Z,22.73
2023-02-15T22:19:45.733Z,27.13
2023-02-15T22:22:13.297Z,24.40
2023-02-15T22:24:40.542Z,27.75
2023-02-15T22:27:07.878Z,25.88
2023-02-15T22:29:35.738Z,26.67
2023-02-15T22:32:03.093Z,28.30
2023-02-15T22:34:31.607Z,26.50
2023-02-15T22:36:59.342Z,24.45
2023-02-15T22:39:26.674Z,27.35
2023-02-15T22:41:54.193Z,24.27
2023-02-15T22:44:29.596Z,26.77
2023-02-15T22:46:56.921Z,28.33
2023-02-15T22:49:24.108Z,30.05
2023-02-15T22:51:51.687Z,30.85
2023-02-15T22:54:19.646Z,27.63
2023-02-15T22:56:49.407Z,27.67
2023-02-15T22:59:26.163Z,28.40
2023-02-15T23:01:53.674Z,31.08
2023-02-15T23:04:25.825Z,29.27
2023-02-15T23:06:53.396Z,31.23
2023-02-15T23:09:20.917Z,28.55
2023-02-15T23:11:48.907Z,29.38
2023-02-15T23:14:22.294Z,29.90
2023-02-15T23:19:16.823Z,30.35
2023-02-15T23:21:44.076Z,30.58
2023-02-15T23:24:20.477Z,29.67
2023-02-15T23:26:47.804Z,30.80
2023-02-15T23:29:17.078Z,27.38
2023-02-15T23:31:45.757Z,25.08
2023-02-15T23:34:29.446Z,26.90
2023-02-15T23:39:43.637Z,31.95
2023-02-15T23:42:12.970Z,32.40
2023-02-15T23:44:40.838Z,32.88
2023-02-15T23:47:15.676Z,33.53
2023-02-15T23:49:42.914Z,34.80
2023-02-15T23:52:11.044Z,33.17
2023-02-15T23:54:38.223Z,31.80
2023-02-15T23:57:05.450Z,36.40
2023-02-15T23:59:33.198Z,36.10
